Time;durP1;ratioP1;P1;durP2;ratioP2;P2;SDS_P1;SDS_P2;PMS_P1;PMS_P2;Temp;Humidity;BMP_temperature;BMP_pressure;BME280_temperature;BME280_humidity;BME280_pressure;Samples;Min_cycle;Max_cycle;Signal;HPM_P1;HPM_P2
2021/08/31 00:01:50;;;;;;;0.10;0.10;;;24.70;75.20;;;;;;4955524;28;20024;-58
2021/08/31 00:04:17;;;;;;;0.08;0.08;;;24.70;75.20;;;;;;4956003;28;20019;-58
2021/08/31 00:06:44;;;;;;;0.08;0.08;;;24.70;75.00;;;;;;4956226;28;20019;-58
2021/08/31 00:09:11;;;;;;;0.45;0.45;;;24.70;75.00;;;;;;4956301;28;20450;-57
2021/08/31 00:11:37;;;;;;;0.17;0.10;;;24.70;74.90;;;;;;4956128;28;20024;-57
2021/08/31 00:14:04;;;;;;;0.00;0.00;;;24.70;74.80;;;;;;4956837;28;20043;-57
2021/08/31 00:16:30;;;;;;;0.20;0.20;;;24.70;74.70;;;;;;4955255;28;20034;-58
2021/08/31 00:18:56;;;;;;;0.00;0.00;;;24.70;74.60;;;;;;4955683;28;20031;-57
2021/08/31 00:21:23;;;;;;;0.75;0.60;;;24.70;74.60;;;;;;4953835;28;20469;-58
2021/08/31 00:23:49;;;;;;;0.00;0.00;;;24.70;74.40;;;;;;4956098;28;20023;-58
2021/08/31 00:26:16;;;;;;;0.03;0.03;;;24.70;74.40;;;;;;4952119;29;20031;-58
2021/08/31 00:28:42;;;;;;;0.00;0.00;;;24.70;74.30;;;;;;4952547;28;20416;-57
2021/08/31 00:31:08;;;;;;;0.30;0.22;;;24.70;74.20;;;;;;4948017;29;20037;-58
2021/08/31 00:33:35;;;;;;;1.10;0.70;;;24.70;74.20;;;;;;4950868;28;20035;-59
2021/08/31 00:36:04;;;;;;;0.00;0.00;;;24.70;74.10;;;;;;4942757;29;20027;-58
2021/08/31 00:38:33;;;;;;;0.25;0.13;;;24.70;74.10;;;;;;4947127;29;20031;-58
2021/08/31 00:41:00;;;;;;;0.20;0.20;;;24.70;74.10;;;;;;4953668;28;20035;-58
2021/08/31 00:43:27;;;;;;;0.00;0.00;;;24.70;74.20;;;;;;4951125;28;20020;-58
2021/08/31 00:45:57;;;;;;;0.60;0.47;;;24.70;74.20;;;;;;4955021;28;20023;-58
2021/08/31 00:48:24;;;;;;;0.00;0.00;;;24.70;74.20;;;;;;4952575;29;20039;-58
2021/08/31 00:50:55;;;;;;;5.93;0.20;;;24.70;74.10;;;;;;4949603;28;20039;-58
2021/08/31 00:53:21;;;;;;;0.30;0.30;;;24.70;74.10;;;;;;4956711;29;20035;-58
2021/08/31 00:55:48;;;;;;;1.00;0.65;;;24.70;74.00;;;;;;4956056;28;20035;-58
2021/08/31 00:58:15;;;;;;;0.57;0.57;;;24.70;74.50;;;;;;4966386;28;20031;-58
2021/08/31 01:00:41;;;;;;;0.00;0.00;;;24.70;74.00;;;;;;4956936;28;20114;-58
2021/08/31 01:03:08;;;;;;;0.00;0.00;;;24.70;73.90;;;;;;4955275;28;20023;-58
2021/08/31 01:05:35;;;;;;;0.10;0.08;;;24.70;73.90;;;;;;4947069;28;20033;-58
2021/08/31 01:08:02;;;;;;;1.17;0.70;;;24.70;74.40;;;;;;4946290;29;20028;-58
2021/08/31 01:10:28;;;;;;;1.23;1.13;;;24.70;73.70;;;;;;4949247;29;20347;-58
2021/08/31 01:12:56;;;;;;;0.00;0.00;;;24.70;73.70;;;;;;4952238;28;20053;-58
2021/08/31 01:15:22;;;;;;;0.00;0.00;;;24.70;73.60;;;;;;4955946;29;20069;-58
2021/08/31 01:17:50;;;;;;;0.13;0.10;;;24.70;73.70;;;;;;4952158;28;20023;-58
2021/08/31 01:20:16;;;;;;;1.15;0.63;;;24.70;73.60;;;;;;4944404;28;20030;-59
2021/08/31 01:22:43;;;;;;;0.00;0.00;;;24.60;73.70;;;;;;4964319;28;20034;-58
2021/08/31 01:25:09;;;;;;;0.10;0.10;;;24.70;74.50;;;;;;4961648;28;20027;-58
2021/08/31 01:27:36;;;;;;;0.00;0.00;;;24.70;74.10;;;;;;4967514;28;20027;-59
2021/08/31 01:30:03;;;;;;;1.98;0.70;;;24.70;74.10;;;;;;4962526;28;20031;-57
2021/08/31 01:32:30;;;;;;;1.08;0.80;;;24.70;74.10;;;;;;4963953;28;20050;-57
2021/08/31 01:34:56;;;;;;;0.17;0.17;;;24.70;74.00;;;;;;4958926;28;20037;-57
2021/08/31 01:37:22;;;;;;;1.35;0.40;;;24.70;74.00;;;;;;4963612;28;20032;-58
2021/08/31 01:39:49;;;;;;;0.52;0.52;;;24.70;74.00;;;;;;4960687;28;20027;-58
2021/08/31 01:42:15;;;;;;;0.00;0.00;;;24.70;73.90;;;;;;4961854;28;20023;-58
2021/08/31 01:44:42;;;;;;;0.40;0.40;;;24.70;73.80;;;;;;4960012;28;20110;-58
2021/08/31 01:47:11;;;;;;;0.00;0.00;;;24.70;73.70;;;;;;4951367;28;20030;-58
2021/08/31 01:49:37;;;;;;;0.60;0.45;;;24.60;72.90;;;;;;4954944;28;20050;-54
2021/08/31 01:52:04;;;;;;;0.05;0.05;;;24.50;73.80;;;;;;4966346;28;20035;-54
2021/08/31 01:54:31;;;;;;;0.00;0.00;;;24.50;74.20;;;;;;4967206;28;20031;-53
2021/08/31 01:56:57;;;;;;;0.13;0.13;;;24.60;74.40;;;;;;4957827;28;20127;-55
2021/08/31 01:59:23;;;;;;;0.00;0.00;;;24.60;74.40;;;;;;4964051;28;20039;-52
2021/08/31 02:01:50;;;;;;;0.10;0.10;;;24.60;74.30;;;;;;4962221;28;20027;-52
2021/08/31 02:04:16;;;;;;;1.85;0.90;;;24.60;74.20;;;;;;4967435;28;20026;-54
2021/08/31 02:06:42;;;;;;;0.43;0.38;;;24.60;74.10;;;;;;4964202;28;20025;-54
2021/08/31 02:09:09;;;;;;;0.20;0.20;;;24.60;74.00;;;;;;4958487;28;20027;-54
2021/08/31 02:11:35;;;;;;;0.03;0.03;;;24.60;73.80;;;;;;4956914;28;20067;-54
2021/08/31 02:14:02;;;;;;;0.00;0.00;;;24.60;73.70;;;;;;4959968;28;20102;-53
2021/08/31 02:16:28;;;;;;;0.10;0.10;;;24.60;73.60;;;;;;4954402;28;20031;-53
2021/08/31 02:18:54;;;;;;;0.05;0.05;;;24.60;73.40;;;;;;4955892;28;20527;-53
2021/08/31 02:21:21;;;;;;;1.20;0.32;;;24.60;73.60;;;;;;4965109;28;20047;-55
2021/08/31 02:23:47;;;;;;;0.52;0.20;;;24.60;73.40;;;;;;4960706;28;20054;-54
2021/08/31 02:26:14;;;;;;;2.47;0.80;;;24.50;73.10;;;;;;4965426;28;20031;-52
2021/08/31 02:28:40;;;;;;;0.52;0.52;;;24.50;73.10;;;;;;4965065;28;20353;-54
2021/08/31 02:31:06;;;;;;;0.93;0.88;;;24.50;73.70;;;;;;4969470;28;20033;-53
2021/08/31 02:33:33;;;;;;;1.10;1.00;;;24.50;73.20;;;;;;4966489;28;20473;-52
2021/08/31 02:35:59;;;;;;;0.20;0.20;;;24.60;73.20;;;;;;4963365;28;20114;-52
2021/08/31 02:38:26;;;;;;;0.15;0.15;;;24.50;73.10;;;;;;4969846;28;20035;-51
2021/08/31 02:40:52;;;;;;;0.20;0.20;;;24.50;72.90;;;;;;4965404;28;20334;-54
2021/08/31 02:43:18;;;;;;;0.00;0.00;;;24.50;72.90;;;;;;4963806;28;20023;-53
2021/08/31 02:45:45;;;;;;;0.30;0.30;;;24.50;72.80;;;;;;4955893;28;20022;-51
2021/08/31 02:48:11;;;;;;;0.00;0.00;;;24.50;72.90;;;;;;4961190;28;20039;-55
2021/08/31 02:50:38;;;;;;;0.22;0.22;;;24.50;72.80;;;;;;4955634;28;20465;-52
2021/08/31 02:53:04;;;;;;;0.10;0.10;;;24.50;73.10;;;;;;4955278;28;20469;-55
2021/08/31 02:55:30;;;;;;;0.03;0.03;;;24.50;72.90;;;;;;4951638;28;20027;-54
2021/08/31 02:57:57;;;;;;;0.85;0.08;;;24.50;72.70;;;;;;4949317;28;20035;-53
2021/08/31 03:00:29;;;;;;;2.40;1.13;;;24.50;72.60;;;;;;4951292;28;20107;-54
2021/08/31 03:02:56;;;;;;;0.10;0.10;;;24.50;72.30;;;;;;4956866;28;20409;-54
2021/08/31 03:05:22;;;;;;;0.00;0.00;;;24.50;72.40;;;;;;4963960;28;20360;-55
2021/08/31 03:07:48;;;;;;;0.30;0.30;;;24.50;72.40;;;;;;4963016;28;20060;-54
2021/08/31 03:10:15;;;;;;;0.00;0.00;;;24.50;72.00;;;;;;4965262;28;20508;-53
2021/08/31 03:12:41;;;;;;;0.00;0.00;;;24.40;72.60;;;;;;4966440;28;20483;-54
2021/08/31 03:15:08;;;;;;;0.10;0.10;;;24.50;72.00;;;;;;4958877;28;20043;-54
2021/08/31 03:17:34;;;;;;;0.88;0.65;;;24.40;71.80;;;;;;4961661;28;20026;-53
2021/08/31 03:20:01;;;;;;;0.10;0.08;;;24.40;72.00;;;;;;4968368;28;20751;-51
2021/08/31 03:22:27;;;;;;;1.33;0.77;;;24.40;71.70;;;;;;4965232;28;20090;-54
2021/08/31 03:24:54;;;;;;;0.00;0.00;;;24.40;72.50;;;;;;4965531;28;20486;-54
2021/08/31 03:27:20;;;;;;;0.00;0.00;;;24.40;71.60;;;;;;4966764;28;20346;-55
2021/08/31 03:29:46;;;;;;;0.30;0.30;;;24.40;71.70;;;;;;4964044;28;20027;-54
2021/08/31 03:32:13;;;;;;;2.17;0.55;;;24.40;71.50;;;;;;4962275;28;20062;-53
2021/08/31 03:34:39;;;;;;;0.30;0.30;;;24.40;71.50;;;;;;4964359;28;20027;-54
2021/08/31 03:37:06;;;;;;;0.28;0.28;;;24.40;71.30;;;;;;4965539;28;20023;-54
2021/08/31 03:39:34;;;;;;;1.27;1.17;;;24.30;71.70;;;;;;4965701;28;20369;-55
2021/08/31 03:42:01;;;;;;;0.00;0.00;;;24.30;71.10;;;;;;4967329;28;20043;-54
2021/08/31 03:44:27;;;;;;;0.55;0.55;;;24.30;71.10;;;;;;4969843;28;20027;-55
2021/08/31 03:46:54;;;;;;;0.00;0.00;;;24.30;71.20;;;;;;4962738;28;20094;-53
2021/08/31 03:49:20;;;;;;;0.55;0.55;;;24.30;71.10;;;;;;4966117;28;20078;-54
2021/08/31 03:51:47;;;;;;;0.00;0.00;;;24.30;71.40;;;;;;4963433;28;20119;-54
2021/08/31 03:54:13;;;;;;;1.10;0.45;;;24.30;71.00;;;;;;4966384;28;20038;-54
2021/08/31 03:56:39;;;;;;;0.00;0.00;;;24.20;70.80;;;;;;4967284;28;20476;-52
2021/08/31 03:59:06;;;;;;;0.00;0.00;;;24.20;71.00;;;;;;4965637;28;20357;-53
2021/08/31 04:01:32;;;;;;;0.00;0.00;;;24.20;70.90;;;;;;4962739;28;20034;-55
2021/08/31 04:03:59;;;;;;;4.28;1.00;;;24.20;71.00;;;;;;4968655;28;20019;-54
2021/08/31 04:06:25;;;;;;;0.85;0.38;;;24.20;71.00;;;;;;4967127;28;20365;-53
2021/08/31 04:08:51;;;;;;;0.57;0.57;;;24.20;70.90;;;;;;4963681;28;20028;-54
2021/08/31 04:11:18;;;;;;;0.32;0.25;;;24.20;70.80;;;;;;4964602;28;20162;-55
2021/08/31 04:13:44;;;;;;;0.30;0.30;;;24.20;70.60;;;;;;4956615;28;20038;-55
2021/08/31 04:16:10;;;;;;;0.00;0.00;;;24.10;70.80;;;;;;4952183;28;20023;-55
2021/08/31 04:18:37;;;;;;;0.20;0.17;;;24.10;70.80;;;;;;4957955;28;20050;-55
2021/08/31 04:21:03;;;;;;;0.13;0.13;;;24.10;70.90;;;;;;4967452;28;20046;-55
2021/08/31 04:23:30;;;;;;;0.00;0.00;;;24.10;71.00;;;;;;4956730;28;20062;-55
2021/08/31 04:25:56;;;;;;;0.00;0.00;;;24.10;71.00;;;;;;4962632;28;20023;-54
2021/08/31 04:28:23;;;;;;;0.00;0.00;;;24.10;70.90;;;;;;4965465;28;20027;-55
2021/08/31 04:30:49;;;;;;;0.00;0.00;;;24.10;71.00;;;;;;4957276;28;20026;-53
2021/08/31 04:33:15;;;;;;;4.40;1.38;;;24.10;70.90;;;;;;4962154;28;20090;-53
2021/08/31 04:35:42;;;;;;;0.32;0.32;;;24.00;70.20;;;;;;4969774;28;20027;-55
2021/08/31 04:38:08;;;;;;;0.30;0.30;;;23.90;70.20;;;;;;4970368;28;20353;-52
2021/08/31 04:40:35;;;;;;;0.63;0.50;;;23.80;70.40;;;;;;4967102;28;20031;-54
2021/08/31 04:43:01;;;;;;;0.95;0.52;;;23.70;70.30;;;;;;4967086;28;20026;-54
2021/08/31 04:45:27;;;;;;;0.57;0.40;;;23.50;70.30;;;;;;4970069;28;20511;-52
2021/08/31 04:47:54;;;;;;;0.00;0.00;;;23.40;71.10;;;;;;4968232;28;20029;-52
2021/08/31 04:50:20;;;;;;;0.00;0.00;;;23.30;70.70;;;;;;4966630;28;20066;-53
2021/08/31 04:52:47;;;;;;;0.45;0.35;;;23.20;70.90;;;;;;4965809;28;20031;-53
2021/08/31 04:55:13;;;;;;;0.13;0.13;;;23.00;71.30;;;;;;4970673;28;20084;-52
2021/08/31 04:57:40;;;;;;;0.52;0.25;;;23.10;71.20;;;;;;4965896;28;20050;-52
2021/08/31 05:00:07;;;;;;;0.00;0.00;;;23.00;71.20;;;;;;4969297;28;20039;-52
2021/08/31 05:02:35;;;;;;;0.00;0.00;;;23.00;71.40;;;;;;4964408;28;20113;-54
2021/08/31 05:05:02;;;;;;;1.92;1.08;;;22.90;71.50;;;;;;4966439;28;20030;-51
2021/08/31 05:07:28;;;;;;;0.68;0.35;;;22.90;71.60;;;;;;4970369;28;20119;-52
2021/08/31 05:09:55;;;;;;;0.43;0.43;;;22.80;71.60;;;;;;4964851;28;20035;-55
2021/08/31 05:12:21;;;;;;;0.10;0.10;;;22.80;71.90;;;;;;4967051;28;20037;-53
2021/08/31 05:14:47;;;;;;;0.38;0.20;;;22.70;71.90;;;;;;4963062;28;20110;-54
2021/08/31 05:17:14;;;;;;;0.90;0.35;;;22.70;72.00;;;;;;4966854;28;20349;-54
2021/08/31 05:19:42;;;;;;;0.10;0.10;;;22.60;72.20;;;;;;4968744;28;20041;-51
2021/08/31 05:22:10;;;;;;;0.10;0.10;;;22.50;72.30;;;;;;4967462;28;20033;-54
2021/08/31 05:24:38;;;;;;;0.32;0.32;;;22.40;72.50;;;;;;4971630;28;20037;-51
2021/08/31 05:27:05;;;;;;;0.10;0.10;;;22.50;72.80;;;;;;4963757;28;20062;-52
2021/08/31 05:29:31;;;;;;;0.00;0.00;;;22.40;73.00;;;;;;4963132;28;20035;-52
2021/08/31 05:31:58;;;;;;;14.45;2.50;;;22.40;73.10;;;;;;4964386;28;20378;-52
2021/08/31 05:34:24;;;;;;;0.00;0.00;;;22.40;73.80;;;;;;4960389;28;20077;-54
2021/08/31 05:36:50;;;;;;;1.75;0.75;;;22.40;73.30;;;;;;4965647;28;20027;-55
2021/08/31 05:39:17;;;;;;;0.30;0.30;;;22.30;73.50;;;;;;4963920;28;20038;-55
2021/08/31 05:41:43;;;;;;;0.08;0.08;;;22.30;73.10;;;;;;4964976;28;20055;-54
2021/08/31 05:44:10;;;;;;;0.20;0.20;;;22.30;73.30;;;;;;4963571;28;20026;-55
2021/08/31 05:46:36;;;;;;;0.00;0.00;;;22.30;73.50;;;;;;4969351;28;20061;-53
2021/08/31 05:49:03;;;;;;;1.35;1.17;;;22.20;73.60;;;;;;4963636;28;20418;-55
2021/08/31 05:51:29;;;;;;;0.00;0.00;;;22.20;73.80;;;;;;4968448;28;20027;-55
2021/08/31 05:53:56;;;;;;;2.85;2.17;;;22.10;73.90;;;;;;4963592;28;20034;-55
2021/08/31 05:56:23;;;;;;;0.40;0.30;;;22.20;74.10;;;;;;4961118;28;20053;-55
2021/08/31 05:58:49;;;;;;;0.25;0.25;;;22.00;74.00;;;;;;4961785;28;20035;-57
2021/08/31 06:01:16;;;;;;;1.23;1.13;;;21.90;74.30;;;;;;4962484;28;20090;-55
2021/08/31 06:03:42;;;;;;;4.80;1.23;;;21.60;75.20;;;;;;4960949;28;20038;-66
2021/08/31 06:06:09;;;;;;;2.72;0.88;;;20.60;77.10;;;;;;4961548;28;20027;-66
2021/08/31 06:08:36;;;;;;;0.20;0.20;;;20.50;77.60;;;;;;4959787;28;20068;-66
2021/08/31 06:11:02;;;;;;;1.17;1.17;;;21.00;76.40;;;;;;4961277;28;20027;-66
2021/08/31 06:13:28;;;;;;;3.40;1.85;;;21.30;75.60;;;;;;4961715;28;20450;-67
2021/08/31 06:15:55;;;;;;;0.00;0.00;;;21.40;75.10;;;;;;4966787;28;20031;-66
2021/08/31 06:18:21;;;;;;;0.15;0.15;;;21.60;74.80;;;;;;4965120;28;20031;-66
2021/08/31 06:20:48;;;;;;;0.00;0.00;;;21.70;74.40;;;;;;4959835;28;20453;-66
2021/08/31 06:23:14;;;;;;;5.55;1.73;;;21.80;74.20;;;;;;4961063;28;20031;-66
2021/08/31 06:25:40;;;;;;;0.32;0.32;;;21.70;73.90;;;;;;4961526;28;20041;-66
2021/08/31 06:28:07;;;;;;;16.77;1.85;;;21.80;73.90;;;;;;4963308;28;20174;-66
2021/08/31 06:30:33;;;;;;;0.60;0.55;;;21.70;74.00;;;;;;4960166;28;20030;-66
2021/08/31 06:33:00;;;;;;;0.00;0.00;;;21.80;73.90;;;;;;4960624;28;20033;-66
2021/08/31 06:35:26;;;;;;;0.05;0.05;;;21.80;73.80;;;;;;4961739;28;20049;-66
2021/08/31 06:37:52;;;;;;;0.47;0.20;;;21.80;73.70;;;;;;4962723;28;20026;-66
2021/08/31 06:40:19;;;;;;;0.10;0.10;;;21.80;73.70;;;;;;4963789;28;20118;-66
2021/08/31 06:42:45;;;;;;;0.00;0.00;;;21.80;73.70;;;;;;4960029;28;20151;-66
2021/08/31 06:45:12;;;;;;;0.28;0.28;;;21.80;73.50;;;;;;4961026;28;20026;-66
2021/08/31 06:47:38;;;;;;;0.35;0.35;;;21.80;73.50;;;;;;4963336;28;20030;-66
2021/08/31 06:50:05;;;;;;;0.98;0.75;;;21.80;73.50;;;;;;4960904;28;20027;-66
2021/08/31 06:52:31;;;;;;;6.30;1.42;;;21.80;73.50;;;;;;4968407;28;20019;-66
2021/08/31 06:54:58;;;;;;;0.65;0.65;;;21.80;73.60;;;;;;4961359;28;20476;-66
2021/08/31 06:57:24;;;;;;;0.55;0.52;;;21.80;73.50;;;;;;4958354;28;20047;-66
2021/08/31 06:59:51;;;;;;;0.47;0.47;;;21.80;73.40;;;;;;4962050;28;20023;-66
2021/08/31 07:02:17;;;;;;;3.97;2.67;;;21.80;73.40;;;;;;4961866;28;20033;-66
2021/08/31 07:04:43;;;;;;;0.30;0.30;;;21.70;73.40;;;;;;4963011;28;20409;-67
2021/08/31 07:07:10;;;;;;;1.15;1.05;;;21.60;73.50;;;;;;4960738;28;20023;-66
2021/08/31 07:09:36;;;;;;;0.40;0.40;;;21.60;73.60;;;;;;4965680;28;20023;-67
2021/08/31 07:12:03;;;;;;;1.10;1.00;;;21.60;73.70;;;;;;4964326;28;20027;-66
2021/08/31 07:14:29;;;;;;;4.20;1.83;;;21.60;73.80;;;;;;4960797;28;20035;-66
2021/08/31 07:16:55;;;;;;;1.15;0.90;;;21.60;73.80;;;;;;4958548;28;20023;-67
2021/08/31 07:19:22;;;;;;;0.20;0.20;;;21.60;73.90;;;;;;4962794;28;20035;-67
2021/08/31 07:21:50;;;;;;;0.50;0.47;;;21.60;73.90;;;;;;4961406;28;20031;-67
2021/08/31 07:24:16;;;;;;;13.05;4.22;;;21.50;74.00;;;;;;4959697;28;20019;-67
2021/08/31 07:26:42;;;;;;;3.25;1.50;;;21.50;74.00;;;;;;4964190;28;20027;-67
2021/08/31 07:29:09;;;;;;;2.63;1.50;;;21.50;73.90;;;;;;4964162;28;20106;-67
2021/08/31 07:31:35;;;;;;;1.77;1.55;;;21.50;73.90;;;;;;4964935;28;20030;-67
2021/08/31 07:34:02;;;;;;;0.40;0.30;;;21.50;73.90;;;;;;4961661;28;20477;-67
2021/08/31 07:36:28;;;;;;;0.00;0.00;;;21.50;73.90;;;;;;4958655;28;20035;-67
2021/08/31 07:38:55;;;;;;;2.08;1.00;;;21.50;73.80;;;;;;4965470;28;20054;-66
2021/08/31 07:41:23;;;;;;;0.65;0.60;;;21.40;74.20;;;;;;4960273;28;20362;-66
2021/08/31 07:43:50;;;;;;;1.25;0.32;;;21.40;73.90;;;;;;4967108;28;20030;-66
2021/08/31 07:46:16;;;;;;;1.15;1.02;;;21.40;73.90;;;;;;4960997;28;20481;-66
2021/08/31 07:48:43;;;;;;;2.75;0.57;;;21.40;73.80;;;;;;4959693;28;20027;-66
2021/08/31 07:51:09;;;;;;;0.10;0.10;;;21.40;73.70;;;;;;4962261;28;20039;-66
2021/08/31 07:53:36;;;;;;;3.22;1.85;;;21.40;73.70;;;;;;4962204;28;20027;-66
2021/08/31 07:56:03;;;;;;;0.30;0.30;;;21.40;73.70;;;;;;4968108;28;20026;-66
2021/08/31 07:58:30;;;;;;;0.90;0.43;;;21.30;74.10;;;;;;4964346;28;20030;-67
2021/08/31 08:00:56;;;;;;;6.18;0.10;;;21.30;74.00;;;;;;4959397;28;20027;-67
2021/08/31 08:03:22;;;;;;;0.57;0.57;;;21.30;73.90;;;;;;4969299;28;20030;-66
2021/08/31 08:05:49;;;;;;;1.20;0.95;;;21.30;73.90;;;;;;4960977;28;20014;-67
2021/08/31 08:08:15;;;;;;;0.00;0.00;;;21.20;73.90;;;;;;4967290;28;20110;-66
2021/08/31 08:10:42;;;;;;;1.63;0.40;;;21.20;73.90;;;;;;4966985;28;20483;-67
2021/08/31 08:13:08;;;;;;;0.20;0.20;;;21.20;74.00;;;;;;4958796;28;20056;-66
2021/08/31 08:15:34;;;;;;;0.47;0.47;;;21.20;74.00;;;;;;4951311;28;20090;-66
2021/08/31 08:18:01;;;;;;;8.52;1.70;;;21.20;74.00;;;;;;4954956;28;20036;-66
2021/08/31 08:20:28;;;;;;;16.77;1.45;;;21.20;73.90;;;;;;4952669;29;20035;-67
2021/08/31 08:22:54;;;;;;;2.70;0.93;;;21.20;74.00;;;;;;4946421;28;20449;-66
2021/08/31 08:25:21;;;;;;;4.00;1.75;;;21.10;74.10;;;;;;4946163;28;20027;-67
2021/08/31 08:27:47;;;;;;;2.03;1.52;;;21.10;74.20;;;;;;4955511;29;20015;-66
2021/08/31 08:30:13;;;;;;;0.10;0.10;;;21.00;74.20;;;;;;4949367;29;20210;-65
2021/08/31 08:32:40;;;;;;;0.28;0.28;;;21.00;74.30;;;;;;4957989;28;20031;-66
2021/08/31 08:35:08;;;;;;;0.32;0.32;;;20.90;74.40;;;;;;4950718;29;20028;-66
2021/08/31 08:37:35;;;;;;;0.80;0.43;;;21.00;74.50;;;;;;4946622;29;20031;-65
2021/08/31 08:40:02;;;;;;;0.20;0.20;;;21.00;74.40;;;;;;4957955;28;20039;-65
2021/08/31 08:42:28;;;;;;;1.33;0.75;;;21.00;74.50;;;;;;4956348;28;20031;-66
2021/08/31 08:44:55;;;;;;;1.10;0.45;;;21.00;74.50;;;;;;4957071;28;20407;-66
2021/08/31 08:47:21;;;;;;;0.22;0.22;;;21.00;74.50;;;;;;4956181;28;20473;-66
2021/08/31 08:49:49;;;;;;;1.50;0.88;;;20.90;74.70;;;;;;4956214;29;20031;-66
2021/08/31 08:52:16;;;;;;;0.50;0.20;;;20.90;74.90;;;;;;4958699;28;20031;-67
2021/08/31 08:54:43;;;;;;;8.48;0.30;;;20.80;74.90;;;;;;4957484;28;20027;-67
2021/08/31 08:57:10;;;;;;;0.00;0.00;;;20.90;75.00;;;;;;4958154;28;20027;-66
2021/08/31 08:59:41;;;;;;;0.70;0.70;;;20.80;75.00;;;;;;4948267;28;20032;-68
2021/08/31 09:02:07;;;;;;;2.92;0.38;;;20.70;75.10;;;;;;4953449;29;20023;-66
2021/08/31 09:04:48;;;;;;;0.20;0.20;;;20.80;75.10;;;;;;4942326;28;20042;-66
2021/08/31 09:07:23;;;;;;;0.75;0.65;;;20.70;75.20;;;;;;4950552;29;20032;-66
2021/08/31 09:10:13;;;;;;;0.20;0.20;;;20.70;75.10;;;;;;4956648;28;20109;-65
2021/08/31 09:12:41;;;;;;;3.30;0.65;;;20.70;75.60;;;;;;4947411;28;20027;-65
2021/08/31 09:15:24;;;;;;;21.45;1.45;;;20.50;75.40;;;;;;4948391;29;20038;-65
2021/08/31 09:18:18;;;;;;;0.52;0.52;;;20.60;75.30;;;;;;4953458;29;20027;-65
2021/08/31 09:21:01;;;;;;;0.95;0.95;;;20.60;75.20;;;;;;4947656;29;20043;-65
2021/08/31 09:23:34;;;;;;;0.47;0.35;;;20.60;75.50;;;;;;4953447;28;20027;-65
2021/08/31 09:26:07;;;;;;;0.47;0.47;;;20.50;75.50;;;;;;4954058;29;20350;-66
2021/08/31 09:28:39;;;;;;;0.13;0.13;;;20.50;75.70;;;;;;4952445;28;20035;-66
2021/08/31 09:31:21;;;;;;;0.65;0.35;;;20.50;75.80;;;;;;4950379;28;20102;-66
2021/08/31 09:33:51;;;;;;;2.83;0.75;;;20.50;75.70;;;;;;4950768;29;20027;-66
2021/08/31 09:36:25;;;;;;;1.30;1.13;;;20.50;75.80;;;;;;4955668;28;20059;-66
2021/08/31 09:39:01;;;;;;;0.52;0.20;;;20.50;75.60;;;;;;4947963;29;20023;-66
2021/08/31 09:41:42;;;;;;;2.47;1.15;;;20.50;75.80;;;;;;4957350;28;20410;-66
2021/08/31 09:44:24;;;;;;;0.20;0.20;;;20.50;76.00;;;;;;4955759;29;20027;-66
2021/08/31 09:47:00;;;;;;;0.00;0.00;;;20.30;76.20;;;;;;4956322;28;20054;-66
2021/08/31 09:49:39;;;;;;;2.17;1.30;;;20.40;76.10;;;;;;4950065;29;20023;-66
2021/08/31 09:52:15;;;;;;;2.72;1.08;;;20.40;76.10;;;;;;4957037;28;20019;-66
2021/08/31 09:54:49;;;;;;;2.83;0.75;;;20.30;76.20;;;;;;4954517;28;20030;-67
2021/08/31 09:57:37;;;;;;;0.38;0.38;;;20.30;76.20;;;;;;4956009;28;20038;-66
2021/08/31 10:00:07;;;;;;;0.47;0.45;;;20.30;76.30;;;;;;4955163;29;20187;-66
2021/08/31 10:02:34;;;;;;;0.52;0.32;;;20.30;76.30;;;;;;4947241;28;20031;-66
2021/08/31 10:05:01;;;;;;;0.20;0.20;;;20.20;76.30;;;;;;4956311;29;20532;-66
2021/08/31 10:07:29;;;;;;;1.05;0.95;;;20.00;76.60;;;;;;4957665;28;20484;-66
2021/08/31 10:09:56;;;;;;;5.63;1.95;;;20.00;76.60;;;;;;4943473;28;20038;-67
2021/08/31 10:12:24;;;;;;;0.20;0.00;;;19.90;76.70;;;;;;4938584;29;20035;-66
2021/08/31 10:14:55;;;;;;;0.17;0.17;;;19.90;76.90;;;;;;4945306;28;20107;-67
2021/08/31 10:17:27;;;;;;;0.00;0.00;;;20.00;76.90;;;;;;4950335;28;20382;-66
2021/08/31 10:19:57;;;;;;;1.65;1.17;;;20.00;76.90;;;;;;4950249;29;20035;-65
2021/08/31 10:22:24;;;;;;;6.07;3.40;;;20.00;76.80;;;;;;4953860;29;20059;-65
2021/08/31 10:24:51;;;;;;;1.67;1.55;;;20.00;76.80;;;;;;4947020;28;20102;-65
2021/08/31 10:27:44;;;;;;;0.10;0.10;;;20.10;76.60;;;;;;4952954;29;20033;-65
2021/08/31 10:30:19;;;;;;;0.00;0.00;;;20.10;76.40;;;;;;4955464;28;20032;-65
2021/08/31 10:33:00;;;;;;;0.38;0.15;;;20.20;76.40;;;;;;4946983;29;20023;-65
2021/08/31 10:35:43;;;;;;;3.90;1.52;;;20.10;76.40;;;;;;4952378;29;20042;-65
2021/08/31 10:38:14;;;;;;;0.00;0.00;;;20.20;76.50;;;;;;4953628;28;20089;-65
2021/08/31 10:40:43;;;;;;;1.20;1.13;;;20.10;76.40;;;;;;4955290;28;20039;-65
2021/08/31 10:43:11;;;;;;;1.08;0.22;;;20.10;76.60;;;;;;4953404;28;20024;-65
2021/08/31 10:46:00;;;;;;;0.00;0.00;;;20.10;76.60;;;;;;4955320;28;20027;-65
2021/08/31 10:48:27;;;;;;;0.75;0.50;;;20.10;76.60;;;;;;4947680;28;20028;-65
2021/08/31 10:51:05;;;;;;;0.52;0.52;;;20.10;76.70;;;;;;4953135;29;20430;-66
2021/08/31 10:53:44;;;;;;;0.85;0.82;;;20.00;76.90;;;;;;4953284;28;20046;-66
2021/08/31 10:56:22;;;;;;;1.10;0.73;;;20.00;76.70;;;;;;4937608;29;20086;-66
2021/08/31 10:58:55;;;;;;;0.20;0.20;;;20.10;76.60;;;;;;4945444;29;20046;-66
2021/08/31 11:01:43;;;;;;;0.00;0.00;;;20.10;76.60;;;;;;4943649;28;20031;-66
2021/08/31 11:04:27;;;;;;;1.13;1.02;;;20.00;76.50;;;;;;4951527;29;20031;-66
2021/08/31 11:07:12;;;;;;;2.58;1.05;;;20.00;76.60;;;;;;4955660;29;20039;-66
2021/08/31 11:09:39;;;;;;;0.40;0.25;;;20.00;76.60;;;;;;4952678;28;20102;-66
2021/08/31 11:12:10;;;;;;;2.92;1.65;;;20.00;76.50;;;;;;4953732;28;20053;-66
2021/08/31 11:14:53;;;;;;;1.00;0.25;;;20.00;76.60;;;;;;4940903;28;20457;-66
2021/08/31 11:17:40;;;;;;;0.22;0.22;;;19.90;76.90;;;;;;4956432;28;20027;-66
2021/08/31 11:20:18;;;;;;;1.50;1.33;;;19.90;77.10;;;;;;4940163;29;20083;-66
2021/08/31 11:22:49;;;;;;;0.30;0.30;;;19.80;77.10;;;;;;4954147;29;20339;-67
2021/08/31 11:25:16;;;;;;;0.35;0.17;;;19.80;77.20;;;;;;4938737;29;20538;-66
2021/08/31 11:27:55;;;;;;;0.55;0.55;;;19.80;77.10;;;;;;4951872;28;20118;-66
2021/08/31 11:30:22;;;;;;;0.20;0.20;;;19.80;77.10;;;;;;4946781;29;20090;-66
2021/08/31 11:32:49;;;;;;;0.55;0.32;;;19.80;77.20;;;;;;4954604;28;20031;-66
2021/08/31 11:35:15;;;;;;;0.43;0.32;;;19.80;77.40;;;;;;4951079;28;20062;-66
2021/08/31 11:37:52;;;;;;;0.10;0.08;;;19.80;77.30;;;;;;4954548;29;20425;-66
2021/08/31 11:40:28;;;;;;;0.82;0.82;;;19.80;77.40;;;;;;4954003;28;20098;-67
2021/08/31 11:42:57;;;;;;;0.75;0.75;;;19.80;77.50;;;;;;4946997;29;20035;-65
2021/08/31 11:45:35;;;;;;;0.00;0.00;;;19.70;77.60;;;;;;4954967;28;20524;-65
2021/08/31 11:48:01;;;;;;;2.53;1.88;;;19.70;78.10;;;;;;4946775;29;20759;-65
2021/08/31 11:50:28;;;;;;;1.58;1.48;;;19.60;77.80;;;;;;4938175;29;20059;-65
2021/08/31 11:52:54;;;;;;;0.15;0.15;;;19.50;78.20;;;;;;4947879;29;20458;-65
2021/08/31 11:55:25;;;;;;;3.05;2.03;;;19.60;77.90;;;;;;4955195;28;20035;-66
2021/08/31 11:58:02;;;;;;;;;;;19.50;78.20;;;;;;4949246;28;20417;-66
2021/08/31 12:00:45;;;;;;;3.00;0.90;;;19.50;78.10;;;;;;4952016;29;19918;-66
2021/08/31 12:03:23;;;;;;;0.10;0.10;;;19.60;77.90;;;;;;4952424;28;20031;-66
2021/08/31 12:06:00;;;;;;;1.50;0.47;;;19.60;77.80;;;;;;4953250;28;20027;-66
2021/08/31 12:08:29;;;;;;;0.88;0.85;;;19.50;77.90;;;;;;4952899;28;20023;-66
2021/08/31 12:10:56;;;;;;;3.70;1.55;;;19.60;77.90;;;;;;4961076;28;20034;-66
2021/08/31 12:13:24;;;;;;;0.85;0.73;;;19.60;77.80;;;;;;4955699;28;20026;-66
2021/08/31 12:15:54;;;;;;;0.10;0.10;;;19.60;78.20;;;;;;4954705;28;20051;-66
2021/08/31 12:18:27;;;;;;;0.28;0.28;;;19.50;77.80;;;;;;4948350;29;20074;-66
2021/08/31 12:21:13;;;;;;;0.00;0.00;;;19.50;77.90;;;;;;4947094;29;20050;-67
2021/08/31 12:23:40;;;;;;;0.20;0.20;;;19.40;78.20;;;;;;4948197;28;20437;-68
2021/08/31 12:26:06;;;;;;;1.52;0.73;;;19.40;78.00;;;;;;4953625;28;20148;-67
2021/08/31 12:28:33;;;;;;;1.65;0.75;;;19.50;78.00;;;;;;4950974;29;20029;-66
2021/08/31 12:31:12;;;;;;;0.40;0.28;;;19.40;78.00;;;;;;4952547;29;20118;-67
2021/08/31 12:33:38;;;;;;;0.10;0.10;;;19.40;78.00;;;;;;4953629;29;20023;-67
2021/08/31 12:36:08;;;;;;;1.48;1.33;;;19.50;77.90;;;;;;4954693;28;20069;-67
2021/08/31 12:38:46;;;;;;;0.10;0.10;;;19.30;78.00;;;;;;4945800;28;20031;-66
2021/08/31 12:41:21;;;;;;;0.13;0.13;;;19.20;78.40;;;;;;4949080;29;20048;-66
2021/08/31 12:43:49;;;;;;;0.30;0.30;;;19.30;78.10;;;;;;4955672;28;20019;-66
2021/08/31 12:46:35;;;;;;;0.17;0.17;;;19.30;78.30;;;;;;4958422;28;20393;-66
2021/08/31 12:49:04;;;;;;;1.35;0.57;;;19.30;78.20;;;;;;4955771;28;20058;-67
2021/08/31 12:51:39;;;;;;;0.00;0.00;;;19.40;78.00;;;;;;4949978;28;20487;-67
2021/08/31 12:54:06;;;;;;;2.65;2.17;;;19.30;78.00;;;;;;4946872;29;20041;-67
2021/08/31 12:56:33;;;;;;;1.08;0.73;;;19.30;78.00;;;;;;4958406;28;20042;-67